Time;durP1;ratioP1;P1;durP2;ratioP2;P2;SDS_P1;SDS_P2;PMS_P1;PMS_P2;Temp;Humidity;BMP_temperature;BMP_pressure;BME280_temperature;BME280_humidity;BME280_pressure;Samples;Min_cycle;Max_cycle;Signal;HPM_P1;HPM_P2
2024/04/17 00:01:58;;;;;;;5.30;3.83;;;10.30;99.90;;;10.49;79.49;101098.16;5280408;27;20006;-70
2024/04/17 00:04:26;;;;;;;5.63;3.55;;;10.30;99.90;;;10.65;79.04;101070.81;5279232;27;20006;-70
2024/04/17 00:06:59;;;;;;;9.25;3.80;;;10.50;99.90;;;10.82;78.38;101097.22;5281013;27;20010;-70
2024/04/17 00:09:26;;;;;;;9.77;3.97;;;10.50;99.90;;;10.92;77.56;101096.31;5280654;27;20010;-70
2024/04/17 00:11:56;;;;;;;7.78;3.83;;;10.70;99.90;;;10.65;78.11;101099.03;5280348;27;20464;-70
2024/04/17 00:14:24;;;;;;;13.55;4.35;;;10.50;99.90;;;10.44;78.67;101101.69;5281123;27;20376;-70
2024/04/17 00:16:54;;;;;;;8.20;4.25;;;10.30;99.90;;;10.48;79.28;101098.16;5281186;27;20010;-70
2024/04/17 00:19:22;;;;;;;7.47;3.53;;;10.30;99.90;;;10.63;79.07;101099.03;5280638;27;20006;-70
2024/04/17 00:21:52;;;;;;;11.65;4.10;;;10.40;99.90;;;10.72;78.53;101096.38;5278796;27;20046;-70
2024/04/17 00:24:22;;;;;;;9.25;4.15;;;10.40;99.90;;;10.77;78.68;101105.19;5307131;27;20005;-70
2024/04/17 00:26:52;;;;;;;7.38;3.72;;;10.50;99.90;;;10.31;80.10;101106.09;5280721;27;20049;-70
2024/04/17 00:29:20;;;;;;;5.03;3.35;;;10.30;99.90;;;10.47;80.38;101104.34;5280480;27;20463;-70
2024/04/17 00:31:50;;;;;;;6.05;3.65;;;10.30;99.90;;;10.62;80.66;101101.69;5280297;27;19998;-70
2024/04/17 00:34:17;;;;;;;7.13;3.88;;;10.40;99.90;;;10.06;82.87;101047.91;5278329;27;20313;-70
2024/04/17 00:36:48;;;;;;;7.32;4.15;;;10.20;99.90;;;10.40;84.36;101090.22;5278664;27;20010;-69
2024/04/17 00:39:15;;;;;;;5.93;3.60;;;10.10;99.90;;;10.26;84.12;101040.91;5280238;27;20002;-70
2024/04/17 00:41:48;;;;;;;7.32;3.90;;;10.30;99.90;;;10.40;85.39;101082.31;5280260;27;20002;-70
2024/04/17 00:44:15;;;;;;;4.75;3.60;;;10.10;99.90;;;10.40;85.43;101082.31;5280090;27;20009;-70
2024/04/17 00:46:46;;;;;;;5.28;3.65;;;10.10;99.90;;;10.44;86.30;101088.47;5280260;27;20003;-70
2024/04/17 00:49:14;;;;;;;6.90;4.05;;;10.10;99.90;;;10.50;86.01;101077.88;5279847;27;20026;-70
2024/04/17 00:51:44;;;;;;;5.55;3.50;;;10.20;99.90;;;10.55;85.87;101081.44;5279792;27;20009;-70
2024/04/17 00:54:12;;;;;;;;;;;10.20;99.90;;;10.50;86.21;101080.53;5280910;27;19998;-70
2024/04/17 00:56:43;;;;;;;4.55;3.63;;;10.20;99.90;;;10.43;86.75;101084.06;5279763;27;19939;-71
2024/04/17 00:59:14;;;;;;;4.82;3.65;;;10.10;99.90;;;10.46;87.28;101079.66;5280655;27;20017;-71
2024/04/17 01:01:44;;;;;;;5.90;3.67;;;10.10;99.90;;;10.42;87.43;101080.53;5280056;27;20002;-70
2024/04/17 01:04:11;;;;;;;5.28;3.60;;;10.10;99.90;;;10.43;87.42;101082.28;5280443;27;20009;-71
2024/04/17 01:06:42;;;;;;;6.53;3.60;;;10.00;99.90;;;10.34;87.34;101077.00;5279934;27;19998;-70
2024/04/17 01:09:10;;;;;;;5.18;3.75;;;10.00;99.90;;;10.45;86.92;101079.66;5279809;27;20452;-70
2024/04/17 01:11:41;;;;;;;7.88;3.90;;;10.10;99.90;;;10.41;87.03;101081.44;5278415;27;20073;-70
2024/04/17 01:14:08;;;;;;;6.28;3.70;;;10.10;99.90;;;10.34;87.23;101105.19;5277701;27;19999;-70
2024/04/17 01:16:43;;;;;;;3.90;3.58;;;9.90;99.90;;;10.15;88.45;101059.38;5279300;27;20013;-70
2024/04/17 01:19:11;;;;;;;5.15;3.58;;;9.80;99.90;;;10.31;89.03;101076.13;5306803;27;19998;-70
2024/04/17 01:21:41;;;;;;;6.15;3.65;;;9.90;99.90;;;10.29;88.74;101070.84;5280074;27;20013;-70
2024/04/17 01:24:11;;;;;;;6.80;3.63;;;9.90;99.90;;;10.31;89.49;101070.84;5279716;27;19998;-70
2024/04/17 01:26:41;;;;;;;10.48;4.20;;;9.90;99.90;;;9.64;89.08;100959.81;5279728;27;20039;-70
2024/04/17 01:29:09;;;;;;;7.95;4.18;;;9.90;99.90;;;9.42;89.45;100976.53;5277661;27;20438;-70
2024/04/17 01:31:40;;;;;;;9.98;3.72;;;9.80;99.90;;;9.84;90.32;101045.25;5279332;27;20072;-70
2024/04/17 01:34:07;;;;;;;11.75;4.40;;;9.70;99.90;;;9.81;91.39;101063.72;5276311;27;20018;-70
2024/04/17 01:36:37;;;;;;;7.15;4.18;;;9.50;99.90;;;9.71;92.43;101063.72;5278033;27;20021;-70
2024/04/17 01:39:05;;;;;;;8.65;3.85;;;9.40;99.90;;;9.63;92.83;101053.13;5277834;27;20432;-70
2024/04/17 01:41:38;;;;;;;8.13;3.92;;;9.40;99.90;;;9.75;92.43;101055.81;5279969;27;20072;-70
2024/04/17 01:44:06;;;;;;;6.93;4.05;;;9.50;99.90;;;9.67;92.32;101052.25;5279940;27;20086;-70
2024/04/17 01:46:36;;;;;;;13.93;4.20;;;9.40;99.90;;;9.72;92.36;101044.31;5279698;27;19998;-70
2024/04/17 01:49:04;;;;;;;;;;;9.40;99.90;;;9.76;92.43;101052.28;5280698;27;20010;-70
2024/04/17 01:51:34;;;;;;;9.02;4.07;;;9.40;99.90;;;9.82;92.81;101049.63;5278902;27;19994;-70
2024/04/17 01:54:01;;;;;;;10.73;4.50;;;9.50;99.90;;;9.39;92.41;101047.75;5279182;27;20394;-70
2024/04/17 01:56:31;;;;;;;13.98;4.30;;;9.20;99.90;;;9.47;93.06;101053.06;5278964;27;20015;-70
2024/04/17 01:59:02;;;;;;;9.80;4.40;;;9.20;99.90;;;9.37;93.02;101049.53;5279907;27;20002;-70
2024/04/17 02:01:32;;;;;;;12.35;4.38;;;9.20;99.90;;;9.33;93.68;101055.66;5279811;27;19998;-70
2024/04/17 02:03:59;;;;;;;17.63;4.93;;;9.10;99.90;;;9.34;94.30;101024.88;5279110;27;19998;-70
2024/04/17 02:06:30;;;;;;;14.70;4.50;;;9.20;99.90;;;9.47;94.68;101047.78;5279010;27;20448;-70
2024/04/17 02:08:57;;;;;;;13.57;4.90;;;9.20;99.90;;;9.49;93.63;101044.28;5279348;27;20432;-70
2024/04/17 02:11:27;;;;;;;16.25;5.55;;;9.20;99.90;;;9.72;92.79;101045.22;5278665;27;20010;-70
2024/04/17 02:13:55;;;;;;;12.63;4.80;;;9.40;99.90;;;9.91;91.93;101052.28;5277784;27;19999;-70
2024/04/17 02:16:28;;;;;;;14.23;4.70;;;9.60;99.90;;;9.03;91.43;100926.28;5278638;27;20009;-70
2024/04/17 02:18:56;;;;;;;17.63;5.30;;;9.50;99.90;;;9.77;90.75;101040.84;5278868;27;20072;-70
2024/04/17 02:21:26;;;;;;;17.35;5.15;;;9.50;99.90;;;9.51;90.59;101044.28;5277326;27;20038;-70
2024/04/17 02:23:53;;;;;;;21.30;5.18;;;9.40;99.90;;;9.44;91.79;101053.97;5280899;27;20010;-70
2024/04/17 02:26:24;;;;;;;16.27;4.93;;;9.20;99.90;;;8.96;90.56;100928.00;5282283;27;20317;-70
2024/04/17 02:28:51;;;;;;;13.57;4.78;;;9.40;99.90;;;9.82;90.02;101060.22;5281799;27;20006;-79
2024/04/17 02:31:21;;;;;;;16.50;5.03;;;9.50;99.90;;;9.84;89.60;101054.91;5282042;27;20009;-79
2024/04/17 02:33:52;;;;;;;20.63;5.53;;;9.60;99.90;;;10.00;88.67;101060.25;5308930;27;20013;-79
2024/04/17 02:36:22;;;;;;;15.95;4.97;;;9.80;99.90;;;9.90;88.22;101055.81;5282610;27;20324;-79
2024/04/17 02:38:50;;;;;;;12.77;4.78;;;9.70;99.90;;;9.84;87.81;101050.53;5280213;27;20072;-79
2024/04/17 02:41:20;;;;;;;19.23;5.13;;;9.70;99.90;;;9.99;87.56;101061.09;5281871;27;20013;-79
2024/04/17 02:43:48;;;;;;;14.82;4.50;;;9.70;99.90;;;10.01;86.87;101056.69;5281851;27;19998;-79
2024/04/17 02:46:18;;;;;;;11.32;4.95;;;9.80;99.90;;;9.97;86.53;101052.28;5281767;27;19998;-79
2024/04/17 02:48:45;;;;;;;18.90;6.05;;;9.70;99.90;;;9.90;86.08;101054.94;5281947;27;20081;-79
2024/04/17 02:51:18;;;;;;;13.02;4.75;;;9.60;99.90;;;9.89;86.49;101054.03;5281993;27;19998;-79
2024/04/17 02:53:46;;;;;;;17.33;4.60;;;9.60;99.90;;;9.89;86.14;101043.47;5281949;27;20035;-79
2024/04/17 02:56:16;;;;;;;16.63;5.15;;;9.70;99.90;;;9.75;86.70;101052.28;5281358;27;20002;-79
2024/04/17 02:58:44;;;;;;;13.35;4.82;;;9.50;99.90;;;9.08;86.60;100956.19;5281816;27;20002;-79
2024/04/17 03:01:14;;;;;;;15.20;4.82;;;9.40;99.90;;;9.40;87.24;101009.94;5281599;27;20468;-79
2024/04/17 03:03:44;;;;;;;17.45;5.00;;;9.40;99.90;;;9.46;87.37;101052.22;5279876;27;20022;-79
2024/04/17 03:06:14;;;;;;;17.20;4.53;;;9.30;99.90;;;9.35;87.55;101035.44;5281472;27;20432;-79
2024/04/17 03:08:46;;;;;;;20.05;5.47;;;9.20;99.90;;;9.40;88.34;101046.91;5279851;27;20073;-79
2024/04/17 03:11:16;;;;;;;15.25;5.30;;;9.10;99.90;;;9.44;87.83;101058.34;5281594;27;20338;-79
2024/04/17 03:13:44;;;;;;;13.93;5.13;;;9.20;99.90;;;9.40;87.88;101035.47;5282094;27;19999;-79
2024/04/17 03:16:14;;;;;;;17.30;5.85;;;9.20;99.90;;;9.28;87.05;101059.16;5281442;27;20022;-79
2024/04/17 03:18:41;;;;;;;16.15;4.90;;;9.10;99.90;;;9.34;86.52;101062.72;5282055;27;20014;-79
2024/04/17 03:21:11;;;;;;;18.20;5.18;;;9.00;99.90;;;9.28;86.14;101061.81;5281121;27;19998;-79
2024/04/17 03:23:39;;;;;;;16.77;4.88;;;9.00;99.90;;;9.36;84.80;101066.25;5279691;27;20318;-79
2024/04/17 03:26:12;;;;;;;20.63;4.82;;;9.10;99.90;;;9.21;83.62;101066.19;5279480;27;20322;-79
2024/04/17 03:28:39;;;;;;;15.98;4.78;;;9.00;99.90;;;9.12;82.87;101074.06;5281542;27;20379;-79
2024/04/17 03:31:09;;;;;;;12.88;4.82;;;8.90;99.90;;;9.24;82.32;101079.41;5281159;27;20023;-79
2024/04/17 03:33:37;;;;;;;28.83;5.40;;;8.90;99.90;;;9.19;80.78;101051.22;5281134;27;20077;-79
2024/04/17 03:36:08;;;;;;;16.25;4.85;;;9.00;99.90;;;9.27;79.88;101075.91;5280486;27;19998;-79
2024/04/17 03:38:38;;;;;;;16.15;5.30;;;9.00;99.90;;;9.20;79.27;101061.78;5281164;27;20407;-78
2024/04/17 03:41:11;;;;;;;16.15;5.00;;;9.10;99.90;;;9.39;78.65;101084.72;5281356;27;20323;-78
2024/04/17 03:43:41;;;;;;;17.50;5.10;;;9.10;99.90;;;9.42;77.99;101082.13;5281278;27;20002;-78
2024/04/17 03:46:11;;;;;;;18.08;5.28;;;9.20;99.90;;;9.22;79.57;101083.78;5281876;27;20007;-78
2024/04/17 03:48:41;;;;;;;19.63;5.38;;;9.00;99.90;;;9.20;79.78;101090.81;5281634;27;20070;-78
2024/04/17 03:51:09;;;;;;;16.70;5.53;;;9.00;99.90;;;9.01;80.77;101083.69;5280992;27;20073;-79
2024/04/17 03:53:39;;;;;;;19.38;5.07;;;8.90;99.90;;;9.10;81.06;101094.28;5280849;27;20010;-78
2024/04/17 03:56:09;;;;;;;17.75;5.47;;;8.90;99.90;;;9.49;80.41;101098.84;5281281;27;19999;-78
2024/04/17 03:58:39;;;;;;;20.65;5.70;;;9.10;99.90;;;9.44;80.54;101090.91;5281092;27;20013;-78
2024/04/17 04:01:07;;;;;;;22.65;5.38;;;9.20;99.90;;;9.53;80.53;101096.22;5281096;27;20073;-78
2024/04/17 04:03:37;;;;;;;17.92;5.32;;;9.20;99.90;;;9.66;80.90;101090.09;5278964;27;19998;-78
2024/04/17 04:06:05;;;;;;;;;;;9.30;99.90;;;9.63;79.84;101087.47;5281285;27;20035;-78
2024/04/17 04:08:35;;;;;;;18.70;4.88;;;9.40;99.90;;;9.42;79.55;101065.38;5280363;27;19927;-78
2024/04/17 04:11:02;;;;;;;20.40;5.07;;;9.30;99.90;;;9.70;78.19;101089.22;5280680;27;20447;-78
2024/04/17 04:13:35;;;;;;;20.92;5.68;;;9.40;99.90;;;9.67;77.62;101083.06;5280620;27;20414;-78
2024/04/17 04:16:04;;;;;;;18.52;5.30;;;9.40;99.90;;;9.50;77.91;101090.94;5280815;27;20030;-78
2024/04/17 04:18:34;;;;;;;13.52;4.78;;;9.30;99.90;;;9.25;79.36;101088.19;5280520;27;20013;-78
2024/04/17 04:21:01;;;;;;;17.35;5.35;;;9.10;99.90;;;9.42;78.57;101082.13;5281167;27;20023;-78
2024/04/17 04:23:31;;;;;;;21.33;5.13;;;9.10;99.90;;;9.24;78.91;101089.94;5280533;27;19999;-78
2024/04/17 04:25:59;;;;;;;19.20;5.10;;;9.00;99.90;;;9.32;78.75;101082.94;5278968;27;20066;-78
2024/04/17 04:28:29;;;;;;;17.75;5.07;;;9.10;99.90;;;9.01;79.14;101075.75;5280154;27;19998;-78
2024/04/17 04:30:59;;;;;;;17.65;4.82;;;8.90;99.90;;;8.99;79.38;101088.97;5280826;27;20455;-78
2024/04/17 04:33:29;;;;;;;15.23;4.95;;;8.80;99.90;;;9.13;79.15;101083.75;5280471;27;20010;-78
2024/04/17 04:35:57;;;;;;;13.82;5.72;;;8.90;99.90;;;9.23;79.15;101109.31;5280373;27;20076;-78
2024/04/17 04:38:27;;;;;;;16.23;5.05;;;8.90;99.90;;;9.10;78.01;101078.44;5280247;27;20009;-78
2024/04/17 04:40:55;;;;;;;13.15;4.70;;;8.90;99.90;;;9.16;77.80;101090.78;5280354;27;20447;-78
2024/04/17 04:43:25;;;;;;;13.10;4.95;;;8.90;99.90;;;9.10;76.84;101063.50;5278184;27;20534;-78
2024/04/17 04:45:53;;;;;;;17.80;4.93;;;9.00;99.90;;;9.28;76.28;101089.09;5280230;27;20434;-78
2024/04/17 04:48:25;;;;;;;15.13;5.15;;;9.00;99.90;;;9.25;76.83;101094.38;5279943;27;20002;-78
2024/04/17 04:50:53;;;;;;;21.63;5.13;;;9.00;99.90;;;9.56;75.76;101098.84;5280395;27;19998;-78
2024/04/17 04:53:23;;;;;;;18.52;4.72;;;9.30;99.90;;;9.42;75.26;101081.22;5307281;27;19998;-78
2024/04/17 04:55:57;;;;;;;17.45;5.47;;;9.30;99.90;;;9.22;76.18;101059.13;5280395;27;19998;-78
2024/04/17 04:58:28;;;;;;;15.48;4.80;;;9.20;99.90;;;9.35;76.06;101088.22;5280603;27;20305;-78
2024/04/17 05:00:56;;;;;;;18.88;5.13;;;9.20;99.90;;;9.34;76.80;101078.56;5280456;27;20069;-78
2024/04/17 05:03:28;;;;;;;13.65;4.38;;;9.10;99.90;;;9.60;76.24;101092.72;5279680;27;19998;-78
2024/04/17 05:05:56;;;;;;;12.25;4.68;;;9.30;99.90;;;9.66;76.35;101091.84;5280260;27;19998;-78
2024/04/17 05:08:26;;;;;;;14.20;5.32;;;9.40;99.90;;;9.66;76.42;101087.47;5279545;27;20008;-78
2024/04/17 05:10:54;;;;;;;11.50;4.82;;;9.40;99.90;;;9.69;77.29;101089.22;5278211;27;20013;-78
2024/04/17 05:13:24;;;;;;;15.07;4.72;;;9.40;99.90;;;9.72;77.21;101092.75;5279689;27;19998;-79
2024/04/17 05:15:51;;;;;;;17.73;5.82;;;9.50;99.90;;;9.72;77.15;101086.59;5281072;27;20010;-76
2024/04/17 05:18:21;;;;;;;21.15;5.00;;;9.50;99.90;;;9.68;77.79;101088.34;5279784;27;20009;-75
2024/04/17 05:20:52;;;;;;;19.15;5.05;;;9.40;99.90;;;9.79;77.15;101089.25;5279748;27;20010;-75
2024/04/17 05:23:22;;;;;;;13.70;4.95;;;9.60;99.90;;;10.04;77.92;101087.53;5279431;27;20003;-76
2024/04/17 05:25:49;;;;;;;13.98;4.80;;;9.70;99.90;;;10.15;76.26;101092.84;5279692;27;19998;-77
2024/04/17 05:28:19;;;;;;;13.93;5.15;;;9.90;99.90;;;10.04;76.22;101084.91;5279832;27;19998;-78
2024/04/17 05:30:56;;;;;;;15.38;5.03;;;9.80;99.90;;;9.89;76.24;101093.66;5279673;27;20072;-75
2024/04/17 05:33:26;;;;;;;15.63;4.90;;;9.70;99.90;;;10.13;76.04;101090.22;5279479;27;19998;-74
2024/04/17 05:35:56;;;;;;;18.17;5.07;;;9.90;99.90;;;10.22;75.48;101084.94;5278081;27;19998;-73
2024/04/17 05:38:26;;;;;;;12.00;4.28;;;9.90;99.90;;;10.08;75.59;101083.13;5279554;27;20014;-73
2024/04/17 05:40:54;;;;;;;20.38;4.90;;;9.90;99.90;;;10.26;75.19;101083.19;5279406;27;20030;-74
2024/04/17 05:43:25;;;;;;;19.48;5.10;;;10.00;99.90;;;10.43;75.16;101084.06;5278951;27;20447;-75
2024/04/17 05:45:53;;;;;;;10.90;4.97;;;10.10;99.90;;;9.76;74.52;100980.94;5278945;27;20009;-75
2024/04/17 05:48:23;;;;;;;14.77;5.47;;;10.10;99.90;;;10.41;72.76;101085.84;5279479;27;20451;-75
2024/04/17 05:50:50;;;;;;;11.70;4.80;;;10.20;99.90;;;10.03;73.12;100991.53;5279889;27;19998;-76
2024/04/17 05:53:24;;;;;;;17.23;4.57;;;10.30;99.90;;;10.65;73.14;101083.16;5278680;27;19998;-75
2024/04/17 05:55:52;;;;;;;14.75;5.20;;;10.30;99.90;;;10.94;72.83;101083.97;5278991;27;20376;-76
2024/04/17 05:58:22;;;;;;;14.88;5.10;;;10.60;99.90;;;11.07;71.97;101088.34;5278093;27;20010;-76
2024/04/17 06:00:50;;;;;;;18.15;5.10;;;10.70;99.90;;;11.21;70.96;101078.59;5279445;27;20009;-76
2024/04/17 06:03:20;;;;;;;13.05;5.00;;;10.90;99.90;;;11.27;69.93;101085.63;5277259;27;20008;-76
2024/04/17 06:05:48;;;;;;;11.82;4.85;;;11.00;99.90;;;11.30;67.62;101094.47;5279248;27;20020;-76
2024/04/17 06:08:18;;;;;;;9.18;4.53;;;11.00;99.90;;;11.43;67.85;101092.63;5276891;27;20005;-76
2024/04/17 06:10:48;;;;;;;8.93;4.15;;;11.10;99.90;;;11.58;67.62;101095.22;5278757;27;20455;-76
2024/04/17 06:13:18;;;;;;;11.65;4.60;;;11.20;99.90;;;11.76;66.52;101081.91;5279273;27;20026;-76
2024/04/17 06:15:47;;;;;;;19.13;4.22;;;11.40;99.90;;;11.99;66.59;101087.94;5278908;27;20003;-77
2024/04/17 06:18:17;;;;;;;13.40;4.75;;;11.70;99.90;;;11.82;66.63;101062.44;5278860;27;19998;-75
2024/04/17 06:20:44;;;;;;;9.85;4.57;;;11.80;99.90;;;11.83;67.22;101091.56;5279147;27;20035;-76
2024/04/17 06:23:14;;;;;;;15.02;4.65;;;11.70;99.90;;;11.44;68.29;101066.13;5278419;27;20480;-76
2024/04/17 06:25:44;;;;;;;15.15;4.90;;;11.40;99.90;;;11.84;68.53;101087.16;5279137;27;20451;-76
2024/04/17 06:28:17;;;;;;;18.48;5.18;;;11.50;99.90;;;11.92;68.12;101085.34;5279338;27;20026;-76
2024/04/17 06:30:45;;;;;;;16.45;4.82;;;11.60;99.90;;;11.82;68.39;101079.22;5278840;27;20376;-76
2024/04/17 06:33:15;;;;;;;15.48;5.00;;;11.50;99.90;;;11.88;68.56;101054.44;5278350;27;20325;-77
2024/04/17 06:35:43;;;;;;;14.88;4.95;;;11.70;99.90;;;12.02;68.70;101093.22;5279118;27;20478;-77
2024/04/17 06:38:13;;;;;;;17.90;5.20;;;11.70;99.90;;;11.98;68.51;101094.13;5276430;27;19999;-77
2024/04/17 06:40:40;;;;;;;15.55;4.38;;;11.80;99.90;;;11.32;69.50;101000.03;5305336;27;20005;-77
2024/04/17 06:43:11;;;;;;;20.95;4.88;;;11.60;99.90;;;11.55;70.11;101087.28;5277989;27;20467;-77
2024/04/17 06:45:41;;;;;;;9.60;4.25;;;11.40;99.90;;;11.69;68.88;101082.84;5278247;27;20009;-77
2024/04/17 06:48:13;;;;;;;8.65;3.80;;;11.40;99.90;;;10.92;71.46;101100.78;5276771;27;20010;-75
2024/04/17 06:50:41;;;;;;;7.93;3.90;;;10.80;99.90;;;10.33;71.27;101119.31;5279273;27;20047;-76
2024/04/17 06:53:12;;;;;;;7.45;3.80;;;10.30;99.90;;;10.52;72.00;101136.94;5276241;27;19998;-78
2024/04/17 06:55:41;;;;;;;;;;;10.30;99.90;;;10.33;72.98;101157.22;5278917;27;20050;-77
2024/04/17 06:58:11;;;;;;;6.00;3.50;;;10.20;99.90;;;10.12;73.63;101149.25;5278003;27;20306;-77
2024/04/17 07:00:41;;;;;;;4.95;3.30;;;9.90;99.90;;;10.16;74.54;101136.94;5278440;27;20014;-76
2024/04/17 07:03:11;;;;;;;5.30;3.88;;;9.90;99.90;;;10.07;75.24;101140.38;5278869;27;20006;-80
2024/04/17 07:05:42;;;;;;;5.25;3.63;;;9.90;99.90;;;10.00;76.05;101109.56;5278127;27;20010;-77
2024/04/17 07:08:09;;;;;;;6.05;4.35;;;9.90;99.90;;;10.16;76.19;101115.78;5278091;27;19999;-74
2024/04/17 07:10:40;;;;;;;5.72;3.70;;;10.00;99.90;;;10.11;76.24;101096.38;5279524;27;20364;-74
2024/04/17 07:13:07;;;;;;;;;;;10.00;99.90;;;10.15;76.59;101098.16;5280143;27;20002;-77
2024/04/17 07:15:37;;;;;;;5.68;3.30;;;10.00;99.90;;;10.18;77.00;101103.44;5281463;27;20315;-76
2024/04/17 07:18:08;;;;;;;4.07;3.35;;;9.90;99.90;;;9.97;77.36;101072.53;5279747;27;20320;-77
2024/04/17 07:20:38;;;;;;;;;;;9.90;99.90;;;10.31;77.62;101105.22;5282491;27;20086;-73
2024/04/17 07:23:05;;;;;;;5.23;3.43;;;10.00;99.90;;;10.26;77.17;101099.06;5282010;27;19939;-75
2024/04/17 07:25:36;;;;;;;4.85;3.75;;;10.00;99.90;;;9.95;76.89;101011.78;5281195;27;20014;-72
2024/04/17 07:28:04;;;;;;;3.97;3.65;;;10.10;99.90;;;9.27;77.12;100944.78;5281622;27;19998;-75
2024/04/17 07:30:34;;;;;;;5.38;3.30;;;9.90;99.90;;;10.03;78.05;101086.66;5280933;27;20002;-75
2024/04/17 07:33:02;;;;;;;7.40;3.42;;;9.70;99.90;;;9.97;77.85;101086.66;5281163;27;20012;-75
2024/04/17 07:35:35;;;;;;;7.93;4.03;;;9.60;99.90;;;9.67;79.25;101078.66;5281025;27;20002;-75
2024/04/17 07:38:03;;;;;;;5.93;3.83;;;9.30;99.90;;;9.70;80.92;101083.06;5281097;27;20034;-75
2024/04/17 07:40:33;;;;;;;3.85;3.55;;;9.30;99.90;;;9.83;81.19;101079.59;5281049;27;20013;-76
2024/04/17 07:43:00;;;;;;;5.25;3.65;;;9.40;99.90;;;9.97;80.88;101072.53;5279746;27;20010;-75
2024/04/17 07:45:30;;;;;;;5.22;3.58;;;9.60;99.90;;;10.06;80.81;101075.22;5281209;27;19998;-75
2024/04/17 07:47:58;;;;;;;3.60;3.30;;;9.70;99.90;;;10.11;80.24;101075.22;5281240;27;19998;-75
2024/04/17 07:50:28;;;;;;;5.35;4.07;;;9.80;99.90;;;10.11;80.68;101080.53;5280972;27;20002;-75
2024/04/17 07:52:58;;;;;;;4.97;3.80;;;9.80;99.90;;;9.98;79.97;101051.44;5308027;27;19998;-75
2024/04/17 07:55:29;;;;;;;4.38;3.53;;;9.80;99.90;;;10.03;79.81;101047.00;5280889;27;20440;-76
2024/04/17 07:57:56;;;;;;;6.13;3.80;;;9.90;99.90;;;10.22;79.06;101076.16;5281380;27;19998;-77
2024/04/17 08:00:26;;;;;;;5.22;4.15;;;9.90;99.90;;;10.43;78.75;101071.72;5280781;27;20005;-77
2024/04/17 08:02:54;;;;;;;4.18;3.78;;;10.10;99.90;;;10.67;78.70;101066.41;5281242;27;20448;-76
2024/04/17 08:05:24;;;;;;;12.93;4.22;;;10.40;99.90;;;10.85;78.96;101073.41;5279338;27;20305;-78
2024/04/17 08:07:51;;;;;;;5.97;4.22;;;10.60;99.90;;;11.18;78.16;101062.75;5280895;27;19998;-76
2024/04/17 08:10:24;;;;;;;7.15;3.88;;;10.90;99.90;;;11.36;77.62;101040.59;5280773;27;20002;-77
2024/04/17 08:12:53;;;;;;;5.70;3.95;;;11.20;99.90;;;11.51;74.29;101028.16;5281300;27;20035;-75
2024/04/17 08:15:23;;;;;;;6.18;3.95;;;11.50;99.90;;;11.37;73.24;100954.94;5280266;27;20013;-77
2024/04/17 08:17:51;;;;;;;5.85;3.50;;;11.70;99.90;;;12.17;72.11;101063.06;5280662;27;20305;-76
2024/04/17 08:20:21;;;;;;;10.70;3.67;;;12.00;99.90;;;12.46;71.50;101032.75;5279949;27;20002;-76
2024/04/17 08:22:49;;;;;;;;;;;12.40;99.90;;;12.77;68.50;101062.53;5281171;27;20002;-78
2024/04/17 08:25:19;;;;;;;5.63;3.45;;;12.60;99.90;;;13.01;67.62;101069.31;5280261;27;19934;-77
2024/04/17 08:27:49;;;;;;;5.00;3.20;;;12.80;99.90;;;13.18;66.30;101068.25;5281133;27;20002;-77
2024/04/17 08:30:19;;;;;;;7.40;3.45;;;12.90;99.90;;;13.14;66.32;101071.84;5280798;27;20459;-77
2024/04/17 08:32:47;;;;;;;5.60;3.42;;;12.90;99.90;;;13.27;65.99;101060.22;5280692;27;19999;-78
2024/04/17 08:35:18;;;;;;;4.53;3.30;;;12.90;99.90;;;13.52;66.18;101047.47;5279778;27;19999;-79
2024/04/17 08:37:45;;;;;;;4.45;3.40;;;13.20;99.90;;;13.83;65.87;101047.91;5306960;27;20324;-76
2024/04/17 08:40:16;;;;;;;6.03;3.50;;;13.50;99.90;;;13.89;63.76;101047.81;5279917;27;20010;-77
2024/04/17 08:42:51;;;;;;;6.65;3.60;;;13.60;99.90;;;14.16;63.98;101050.06;5280268;27;20002;-76
2024/04/17 08:45:33;;;;;;;6.75;3.40;;;13.90;99.90;;;14.38;62.39;101059.50;5280907;27;20030;-77
2024/04/17 08:48:16;;;;;;;4.10;3.70;;;14.10;99.90;;;14.41;61.47;101062.09;5280108;27;20446;-77
2024/04/17 08:50:48;;;;;;;8.88;3.53;;;14.10;99.90;;;13.53;62.39;101068.72;5280135;27;20081;-78
2024/04/17 08:53:18;;;;;;;9.75;4.32;;;13.60;99.90;;;12.20;67.52;101081.59;5279933;27;20002;-77
2024/04/17 08:55:49;;;;;;;15.20;4.20;;;12.30;99.90;;;10.85;72.63;101050.50;5279994;27;20325;-76
2024/04/17 08:58:19;;;;;;;7.95;4.35;;;11.10;99.90;;;10.62;77.59;101086.69;5280247;27;20001;-75
2024/04/17 09:00:53;;;;;;;7.00;3.90;;;10.40;99.90;;;10.55;80.00;101084.06;5280825;27;20037;-75
2024/04/17 09:03:22;;;;;;;6.93;3.67;;;10.30;99.90;;;9.98;82.77;101075.22;5280510;27;19998;-72
2024/04/17 09:05:54;;;;;;;7.80;3.50;;;9.80;99.90;;;9.84;84.35;101071.66;5279948;27;20010;-75
2024/04/17 09:08:24;;;;;;;10.65;4.00;;;9.60;99.90;;;9.55;85.80;101094.47;5280138;27;20030;-74
2024/04/17 09:10:56;;;;;;;8.20;3.90;;;9.40;99.90;;;9.42;86.88;101053.06;5279598;27;19998;-74
2024/04/17 09:13:27;;;;;;;9.93;4.18;;;9.20;99.90;;;9.21;85.91;101052.13;5279899;27;20009;-75
2024/04/17 09:15:57;;;;;;;8.60;3.90;;;9.00;99.90;;;9.25;86.74;101062.69;5278128;27;19998;-74
2024/04/17 09:18:25;;;;;;;10.10;4.85;;;9.00;99.90;;;9.00;88.67;101058.19;5280457;27;20039;-74
2024/04/17 09:20:57;;;;;;;6.90;4.07;;;8.80;99.90;;;9.09;89.23;101055.59;5279682;27;20010;-75
2024/04/17 09:23:25;;;;;;;4.00;3.45;;;8.80;99.90;;;9.09;87.85;101042.38;5279926;27;19998;-75
2024/04/17 09:25:56;;;;;;;4.30;3.80;;;8.90;99.90;;;9.03;87.54;101071.38;5279346;27;20002;-75
2024/04/17 09:28:26;;;;;;;6.22;3.97;;;8.90;99.90;;;9.09;86.33;101021.28;5279940;27;20006;-75
2024/04/17 09:30:57;;;;;;;6.07;3.90;;;9.00;99.90;;;9.32;85.40;101040.72;5280232;27;20324;-75
2024/04/17 09:33:25;;;;;;;3.92;3.47;;;9.10;99.90;;;9.52;84.84;101039.03;5278225;27;19999;-75
2024/04/17 09:35:55;;;;;;;4.68;3.50;;;9.30;99.90;;;9.57;81.03;101044.31;5279537;27;20072;-75
2024/04/17 09:38:23;;;;;;;4.60;3.75;;;9.30;99.90;;;9.65;80.52;101043.44;5279582;27;20030;-75
2024/04/17 09:40:54;;;;;;;6.05;3.53;;;9.50;99.90;;;9.93;79.87;101018.81;5279388;27;20013;-75
2024/04/17 09:43:29;;;;;;;4.63;3.45;;;9.80;99.90;;;10.20;78.04;101001.25;5279495;27;20073;-74
2024/04/17 09:45:59;;;;;;;3.60;3.35;;;10.10;99.90;;;10.64;78.56;101012.63;5821038;21;20024;-73
2024/04/17 09:48:31;;;;;;;4.75;3.47;;;10.60;99.90;;;10.66;72.62;101018.78;5312271;26;20005;-75
2024/04/17 09:51:02;;;;;;;4.97;3.65;;;10.60;99.90;;;10.93;73.44;101008.13;5313511;27;19998;-76
2024/04/17 09:53:35;;;;;;;5.20;3.33;;;10.90;99.90;;;11.61;72.47;101032.47;5314040;27;20068;-75
2024/04/17 09:56:06;;;;;;;6.88;3.45;;;11.30;99.90;;;12.01;71.16;101040.22;5313320;27;20002;-75
2024/04/17 09:58:40;;;;;;;3.90;3.47;;;11.80;99.90;;;12.37;69.50;101047.84;5313216;27;19997;-75
2024/04/17 10:01:19;;;;;;;6.28;3.00;;;12.10;99.90;;;12.84;67.80;101050.94;5313622;27;20453;-75
2024/04/17 10:03:50;;;;;;;3.70;3.10;;;12.60;99.90;;;12.80;66.61;100969.56;5312931;27;19997;-76
2024/04/17 10:06:21;;;;;;;4.85;3.15;;;13.00;99.90;;;13.15;65.41;101055.03;5313338;27;20009;-76
2024/04/17 10:08:54;;;;;;;3.05;2.72;;;13.10;99.90;;;12.73;62.95;101060.78;5313346;27;20013;-76
2024/04/17 10:11:22;;;;;;;3.63;3.33;;;12.70;99.90;;;12.49;62.70;101053.94;5313213;27;20447;-76
2024/04/17 10:13:57;;;;;;;3.28;3.08;;;12.40;99.90;;;12.05;62.63;101047.25;5312787;27;19998;-76
2024/04/17 10:16:25;;;;;;;3.00;2.80;;;12.00;99.90;;;12.12;62.29;101060.44;5313025;27;20071;-76
2024/04/17 10:18:55;;;;;;;3.45;3.15;;;11.90;99.90;;;11.78;62.54;101061.59;5282724;27;20005;-76
2024/04/17 10:21:23;;;;;;;3.47;3.15;;;11.60;99.90;;;11.29;63.80;101057.38;5313229;27;20002;-75
2024/04/17 10:24:02;;;;;;;4.53;3.40;;;11.20;99.90;;;11.18;64.89;101068.03;5312889;27;20008;-76
2024/04/17 10:26:40;;;;;;;6.00;3.20;;;10.90;99.90;;;11.30;66.02;101054.75;5313404;27;19997;-76
2024/04/17 10:29:20;;;;;;;4.20;3.20;;;11.10;99.90;;;10.38;67.94;100925.41;5312904;27;20008;-76